Time;durP1;ratioP1;P1;durP2;ratioP2;P2;SDS_P1;SDS_P2;PMS_P1;PMS_P2;Temp;Humidity;BMP_temperature;BMP_pressure;BME280_temperature;BME280_humidity;BME280_pressure;Samples;Min_cycle;Max_cycle;Signal;HPM_P1;HPM_P2
2023/08/15 00:00:56;;;;;;;1.60;1.40;;;24.20;99.90;;;;;;5084697;28;20489;-64
2023/08/15 00:03:22;;;;;;;2.40;1.40;;;24.20;99.90;;;;;;5076675;28;20501;-64
2023/08/15 00:05:49;;;;;;;2.50;1.40;;;24.20;99.90;;;;;;5076163;28;20431;-64
2023/08/15 00:08:16;;;;;;;2.70;1.50;;;24.20;99.90;;;;;;5076752;28;20427;-64
2023/08/15 00:10:45;;;;;;;1.80;1.50;;;24.10;99.90;;;;;;5086327;28;20494;-63
2023/08/15 00:13:12;;;;;;;1.65;1.40;;;24.10;99.90;;;;;;5096643;28;20847;-63
2023/08/15 00:15:39;;;;;;;1.75;1.40;;;24.10;99.90;;;;;;5084655;28;20515;-63
2023/08/15 00:18:07;;;;;;;2.00;1.30;;;24.10;99.90;;;;;;5076289;28;20921;-63
2023/08/15 00:20:34;;;;;;;1.83;1.20;;;24.10;99.90;;;;;;5075449;28;20435;-63
2023/08/15 00:23:01;;;;;;;2.00;1.53;;;24.10;99.90;;;;;;5073847;28;20778;-63
2023/08/15 00:25:28;;;;;;;2.20;1.40;;;24.00;99.90;;;;;;5084632;28;20802;-63
2023/08/15 00:27:56;;;;;;;4.50;1.70;;;24.10;99.90;;;;;;5095524;28;20833;-63
2023/08/15 00:30:23;;;;;;;1.70;1.42;;;24.00;99.90;;;;;;5081795;28;20862;-63
2023/08/15 00:32:50;;;;;;;2.27;1.53;;;24.00;99.90;;;;;;5075304;28;20754;-63
2023/08/15 00:35:17;;;;;;;1.90;1.40;;;24.00;99.90;;;;;;5090119;28;20926;-63
2023/08/15 00:37:44;;;;;;;1.80;1.40;;;24.00;99.90;;;;;;5094410;28;20425;-63
2023/08/15 00:40:12;;;;;;;2.20;1.30;;;24.00;99.90;;;;;;5089121;28;20844;-63
2023/08/15 00:42:38;;;;;;;2.42;1.50;;;24.00;99.90;;;;;;5095515;28;20433;-64
2023/08/15 00:45:08;;;;;;;1.88;1.30;;;24.00;99.90;;;;;;5090410;28;20487;-63
2023/08/15 00:47:35;;;;;;;2.05;1.30;;;24.00;99.90;;;;;;5094723;28;20528;-63
2023/08/15 00:50:03;;;;;;;2.00;1.40;;;24.00;99.30;;;;;;5075763;28;20436;-63
2023/08/15 00:52:31;;;;;;;1.90;1.30;;;24.00;96.80;;;;;;5075216;28;20426;-64
2023/08/15 00:54:58;;;;;;;1.85;1.30;;;24.00;99.90;;;;;;5092451;28;20429;-63
2023/08/15 00:57:25;;;;;;;1.60;1.20;;;24.00;99.90;;;;;;5091012;28;20505;-63
2023/08/15 00:59:52;;;;;;;2.17;1.60;;;24.00;99.90;;;;;;5094515;28;20430;-63
2023/08/15 01:02:21;;;;;;;2.10;1.80;;;23.90;99.90;;;;;;5093637;28;20502;-63
2023/08/15 01:04:49;;;;;;;1.42;1.33;;;23.90;99.90;;;;;;5075782;28;20435;-63
2023/08/15 01:07:17;;;;;;;2.00;1.55;;;23.80;99.90;;;;;;5077729;28;20868;-63
2023/08/15 01:09:45;;;;;;;2.00;1.40;;;23.70;99.90;;;;;;5074475;28;20842;-63
2023/08/15 01:12:22;;;;;;;1.55;1.40;;;23.70;99.90;;;;;;5074999;28;20469;-63
2023/08/15 01:14:52;;;;;;;2.10;1.20;;;23.60;99.90;;;;;;5075262;28;20426;-63
2023/08/15 01:17:28;;;;;;;2.30;1.63;;;23.60;99.90;;;;;;5075128;28;20443;-63
2023/08/15 01:19:58;;;;;;;1.90;1.60;;;23.60;99.90;;;;;;5074948;28;20423;-63
2023/08/15 01:22:29;;;;;;;1.70;1.30;;;23.60;99.90;;;;;;5076233;28;20500;-63
2023/08/15 01:24:58;;;;;;;2.30;1.30;;;23.60;99.90;;;;;;5075032;28;20781;-63
2023/08/15 01:27:25;;;;;;;1.73;1.38;;;23.60;99.90;;;;;;5076364;28;20435;-63
2023/08/15 01:29:52;;;;;;;1.70;1.30;;;23.60;99.90;;;;;;5075145;28;20457;-63
2023/08/15 01:32:27;;;;;;;2.35;1.50;;;23.50;99.90;;;;;;5077161;28;20488;-63
2023/08/15 01:35:03;;;;;;;2.63;1.40;;;23.50;99.90;;;;;;5075197;28;20420;-63
2023/08/15 01:37:31;;;;;;;1.60;1.30;;;23.50;99.90;;;;;;5090167;28;20463;-63
2023/08/15 01:40:04;;;;;;;2.80;1.20;;;23.40;99.90;;;;;;5095072;28;20471;-63
2023/08/15 01:42:32;;;;;;;1.80;1.30;;;23.40;99.90;;;;;;5078193;28;20442;-63
2023/08/15 01:45:01;;;;;;;2.10;1.50;;;23.40;99.90;;;;;;5074896;28;20482;-63
2023/08/15 01:47:31;;;;;;;1.60;1.40;;;23.40;99.90;;;;;;5073767;28;20496;-63
2023/08/15 01:49:58;;;;;;;2.08;1.42;;;23.40;99.90;;;;;;5074203;28;20469;-63
2023/08/15 01:52:25;;;;;;;2.40;1.30;;;23.30;99.90;;;;;;5077651;28;20423;-63
2023/08/15 01:54:52;;;;;;;1.80;1.27;;;23.30;99.90;;;;;;5074291;28;20408;-63
2023/08/15 01:57:20;;;;;;;2.10;1.60;;;23.20;99.90;;;;;;5074017;28;20436;-63
2023/08/15 01:59:47;;;;;;;2.10;1.50;;;23.20;99.90;;;;;;5074161;28;20489;-63
2023/08/15 02:02:14;;;;;;;2.08;1.25;;;23.10;99.90;;;;;;5073860;28;20431;-63
2023/08/15 02:04:41;;;;;;;2.80;1.50;;;23.10;99.90;;;;;;5075504;28;20496;-63
2023/08/15 02:07:08;;;;;;;1.50;1.30;;;23.10;99.90;;;;;;5075085;28;20424;-63
2023/08/15 02:09:35;;;;;;;1.80;1.40;;;23.00;99.90;;;;;;5073329;28;20500;-63
2023/08/15 02:12:01;;;;;;;2.17;1.50;;;23.00;99.90;;;;;;5093351;28;20752;-62
2023/08/15 02:14:30;;;;;;;2.42;1.50;;;23.00;99.90;;;;;;5088344;28;20809;-61
2023/08/15 02:16:57;;;;;;;1.80;1.27;;;23.10;99.90;;;;;;5074477;28;20480;-63
2023/08/15 02:19:24;;;;;;;1.45;1.30;;;23.20;99.90;;;;;;5074540;28;20793;-64
2023/08/15 02:21:51;;;;;;;2.00;1.40;;;23.20;99.90;;;;;;5093657;28;20429;-63
2023/08/15 02:24:18;;;;;;;1.85;1.50;;;23.10;99.90;;;;;;5088488;28;20427;-63
2023/08/15 02:26:45;;;;;;;2.40;1.50;;;23.10;99.90;;;;;;5094171;28;20422;-63
2023/08/15 02:29:13;;;;;;;1.70;1.42;;;23.20;99.90;;;;;;5089227;28;20435;-64
2023/08/15 02:31:47;;;;;;;1.90;1.40;;;23.20;99.90;;;;;;5093801;28;20425;-63
2023/08/15 02:34:14;;;;;;;3.08;2.08;;;23.20;99.90;;;;;;5090061;28;20808;-63
2023/08/15 02:36:41;;;;;;;1.95;1.50;;;23.20;99.90;;;;;;5094607;28;20418;-63
2023/08/15 02:39:08;;;;;;;1.90;1.45;;;23.10;99.90;;;;;;5088132;28;20429;-64
2023/08/15 02:41:35;;;;;;;2.40;1.30;;;23.10;99.90;;;;;;5094266;28;20724;-63
2023/08/15 02:44:02;;;;;;;1.50;1.20;;;23.00;99.90;;;;;;5086762;28;20435;-64
2023/08/15 02:46:29;;;;;;;1.98;1.60;;;23.10;99.90;;;;;;5074243;28;20502;-64
2023/08/15 02:48:57;;;;;;;2.20;1.50;;;23.20;99.90;;;;;;5072812;28;20423;-63
2023/08/15 02:51:24;;;;;;;2.20;2.00;;;23.20;99.90;;;;;;5072372;28;20427;-64
2023/08/15 02:53:51;;;;;;;2.78;1.85;;;23.30;99.90;;;;;;5075274;28;20778;-63
2023/08/15 02:56:18;;;;;;;2.42;1.50;;;23.20;99.90;;;;;;5072732;28;20423;-64
2023/08/15 02:58:45;;;;;;;2.00;1.55;;;23.30;99.90;;;;;;5072966;28;20466;-63
2023/08/15 03:01:12;;;;;;;2.83;1.40;;;23.30;99.90;;;;;;5072915;28;20419;-64
2023/08/15 03:03:39;;;;;;;3.22;1.63;;;23.30;99.90;;;;;;5074282;28;20443;-63
2023/08/15 03:06:08;;;;;;;2.10;1.50;;;23.30;99.90;;;;;;5074200;28;20423;-63
2023/08/15 03:08:35;;;;;;;2.40;1.55;;;23.40;99.90;;;;;;5082821;28;20494;-63
2023/08/15 03:11:02;;;;;;;2.72;1.60;;;23.40;99.90;;;;;;5094107;28;20475;-64
2023/08/15 03:13:29;;;;;;;2.17;1.50;;;23.40;99.90;;;;;;5080570;28;20424;-63
2023/08/15 03:15:58;;;;;;;2.33;1.35;;;23.40;99.90;;;;;;5074091;28;20473;-63
2023/08/15 03:18:25;;;;;;;2.00;1.52;;;23.40;99.90;;;;;;5082926;28;20487;-63
2023/08/15 03:20:58;;;;;;;2.50;1.70;;;23.40;99.90;;;;;;5095149;28;20426;-63
2023/08/15 03:23:27;;;;;;;2.30;1.70;;;23.30;99.90;;;;;;5078600;28;20493;-63
2023/08/15 03:25:58;;;;;;;1.92;1.60;;;23.30;99.90;;;;;;5077199;28;20477;-63
2023/08/15 03:28:25;;;;;;;1.70;1.40;;;23.30;99.90;;;;;;5090707;28;20426;-64
2023/08/15 03:30:52;;;;;;;2.10;1.80;;;23.20;99.90;;;;;;5097049;28;20817;-63
2023/08/15 03:33:19;;;;;;;3.10;1.40;;;23.20;99.90;;;;;;5075706;28;20788;-61
2023/08/15 03:35:47;;;;;;;2.30;1.30;;;23.20;99.90;;;;;;5075829;28;20423;-62
2023/08/15 03:38:16;;;;;;;2.80;1.50;;;23.20;99.90;;;;;;5092255;28;20409;-62
2023/08/15 03:40:45;;;;;;;3.00;1.50;;;23.20;99.90;;;;;;5094861;28;20743;-62
2023/08/15 03:43:12;;;;;;;2.17;1.40;;;23.20;99.90;;;;;;5093502;28;20744;-62
2023/08/15 03:45:39;;;;;;;2.33;1.70;;;23.20;99.90;;;;;;5091822;28;20596;-62
2023/08/15 03:48:09;;;;;;;1.80;1.40;;;23.10;99.90;;;;;;5095487;28;20479;-62
2023/08/15 03:50:36;;;;;;;2.60;1.40;;;23.10;99.90;;;;;;5091080;28;20439;-62
2023/08/15 03:53:04;;;;;;;2.25;1.50;;;23.00;99.90;;;;;;5096250;28;20475;-61
2023/08/15 03:55:31;;;;;;;2.60;1.60;;;23.00;99.90;;;;;;5090905;28;20920;-62
2023/08/15 03:58:00;;;;;;;3.00;2.00;;;23.00;99.90;;;;;;5075684;28;20420;-62
2023/08/15 04:00:27;;;;;;;2.60;1.88;;;23.00;99.90;;;;;;5080791;28;20745;-62
2023/08/15 04:02:53;;;;;;;2.00;1.80;;;23.00;99.90;;;;;;5096327;28;20862;-62
2023/08/15 04:05:20;;;;;;;1.73;1.60;;;23.00;99.90;;;;;;5086975;28;20493;-62
2023/08/15 04:07:47;;;;;;;2.80;1.60;;;23.00;99.90;;;;;;5075554;28;20427;-62
2023/08/15 04:10:15;;;;;;;1.70;1.53;;;23.00;99.90;;;;;;5076960;28;20451;-60
2023/08/15 04:12:42;;;;;;;2.10;1.60;;;23.00;99.90;;;;;;5075970;28;20415;-62
2023/08/15 04:15:11;;;;;;;3.00;2.00;;;23.00;99.90;;;;;;5075741;28;20487;-62
2023/08/15 04:17:38;;;;;;;1.52;1.38;;;23.00;99.90;;;;;;5094414;28;20430;-62
2023/08/15 04:20:06;;;;;;;2.05;1.80;;;22.90;99.90;;;;;;5092612;28;20486;-62
2023/08/15 04:22:33;;;;;;;2.20;1.70;;;22.90;99.90;;;;;;5075705;28;20423;-61
2023/08/15 04:25:00;;;;;;;2.80;1.70;;;23.00;99.90;;;;;;5075223;28;20485;-61
2023/08/15 04:27:27;;;;;;;2.85;1.55;;;22.90;99.90;;;;;;5076040;28;20842;-62
2023/08/15 04:29:55;;;;;;;1.70;1.48;;;22.90;99.90;;;;;;5075730;28;20484;-61
2023/08/15 04:32:23;;;;;;;3.95;2.67;;;22.90;99.90;;;;;;5078991;28;20453;-61
2023/08/15 04:34:50;;;;;;;2.17;1.75;;;22.80;99.90;;;;;;5092311;28;20490;-61
2023/08/15 04:37:17;;;;;;;4.10;2.60;;;22.70;99.90;;;;;;5092183;28;20511;-61
2023/08/15 04:39:44;;;;;;;3.80;1.80;;;22.70;99.90;;;;;;5092659;28;20839;-61
2023/08/15 04:42:11;;;;;;;2.03;1.50;;;22.70;99.90;;;;;;5091166;28;20429;-62
2023/08/15 04:44:38;;;;;;;2.80;1.90;;;22.80;99.90;;;;;;5074702;28;20527;-60
2023/08/15 04:47:05;;;;;;;1.70;1.40;;;22.90;99.90;;;;;;5090810;28;20449;-60
2023/08/15 04:49:34;;;;;;;3.67;2.00;;;23.00;99.90;;;;;;5091903;28;20542;-60
2023/08/15 04:52:01;;;;;;;2.50;1.70;;;22.90;99.90;;;;;;5094095;28;20500;-60
2023/08/15 04:54:28;;;;;;;2.37;1.60;;;22.90;99.90;;;;;;5093968;28;20528;-60
2023/08/15 04:56:55;;;;;;;2.10;1.50;;;23.00;99.90;;;;;;5094218;28;20459;-60
2023/08/15 04:59:22;;;;;;;1.90;1.70;;;23.00;99.90;;;;;;5095047;28;20837;-60
2023/08/15 05:01:49;;;;;;;2.20;1.70;;;23.00;99.90;;;;;;5103673;28;20803;-60
2023/08/15 05:04:16;;;;;;;1.75;1.60;;;23.00;99.90;;;;;;5095416;28;20429;-60
2023/08/15 05:06:44;;;;;;;2.10;1.40;;;23.00;99.90;;;;;;5083656;28;20477;-60
2023/08/15 05:09:11;;;;;;;1.88;1.67;;;22.90;99.90;;;;;;5073860;28;20423;-60
2023/08/15 05:11:38;;;;;;;1.90;1.70;;;23.00;99.90;;;;;;5073513;28;20851;-60
2023/08/15 05:14:06;;;;;;;2.10;1.80;;;22.80;99.90;;;;;;5073858;28;20481;-60
2023/08/15 05:16:33;;;;;;;2.33;1.92;;;22.80;99.90;;;;;;5072826;28;20473;-60
2023/08/15 05:19:00;;;;;;;2.20;1.97;;;22.70;99.90;;;;;;5070321;28;20739;-60
2023/08/15 05:21:28;;;;;;;2.80;1.77;;;22.60;99.90;;;;;;5071302;28;20626;-60
2023/08/15 05:23:56;;;;;;;2.30;1.50;;;22.60;99.90;;;;;;5082336;28;20750;-58
2023/08/15 05:26:23;;;;;;;2.80;1.70;;;22.60;99.90;;;;;;5092696;28;20898;-58
2023/08/15 05:28:50;;;;;;;2.50;1.65;;;22.60;99.90;;;;;;5079339;28;20477;-58
2023/08/15 05:31:17;;;;;;;2.72;1.50;;;22.70;99.90;;;;;;5071841;28;20819;-60
2023/08/15 05:33:44;;;;;;;2.42;1.60;;;22.80;99.90;;;;;;5086151;28;20882;-60
2023/08/15 05:36:11;;;;;;;1.80;1.60;;;22.90;99.90;;;;;;5094441;28;20433;-60
2023/08/15 05:38:38;;;;;;;3.22;1.65;;;23.10;99.90;;;;;;5075081;28;20742;-60
2023/08/15 05:41:06;;;;;;;2.50;1.40;;;23.30;99.90;;;;;;5073617;28;20427;-60
2023/08/15 05:43:33;;;;;;;3.63;1.90;;;23.30;97.50;;;;;;5085392;28;20426;-59
2023/08/15 05:46:00;;;;;;;3.10;1.50;;;23.40;90.10;;;;;;5090633;28;20430;-61
2023/08/15 05:48:27;;;;;;;2.60;1.70;;;23.40;91.50;;;;;;5071897;28;20435;-59
2023/08/15 05:50:54;;;;;;;1.80;1.40;;;23.40;90.40;;;;;;5073122;28;20457;-59
2023/08/15 05:53:21;;;;;;;2.10;1.80;;;23.40;92.50;;;;;;5087265;28;20852;-61
2023/08/15 05:55:48;;;;;;;3.15;1.70;;;23.40;95.60;;;;;;5091273;28;20422;-61
2023/08/15 05:58:16;;;;;;;2.90;1.87;;;23.40;93.80;;;;;;5072441;28;20621;-61
2023/08/15 06:00:43;;;;;;;2.20;1.43;;;23.40;98.20;;;;;;5071779;28;20429;-61
2023/08/15 06:03:10;;;;;;;2.00;1.80;;;23.40;94.20;;;;;;5070869;28;20532;-61
2023/08/15 06:05:37;;;;;;;2.47;1.65;;;23.50;81.70;;;;;;5069681;28;20427;-61
2023/08/15 06:08:04;;;;;;;3.03;1.77;;;23.60;74.80;;;;;;5072034;28;20428;-61
2023/08/15 06:10:31;;;;;;;3.67;1.67;;;23.60;69.30;;;;;;5074961;28;20483;-61
2023/08/15 06:12:58;;;;;;;2.20;1.80;;;23.70;55.40;;;;;;5068850;28;20806;-61
2023/08/15 06:15:26;;;;;;;2.50;1.70;;;23.90;39.30;;;;;;5069760;28;20508;-61
2023/08/15 06:17:53;;;;;;;3.07;2.20;;;24.00;28.70;;;;;;5070537;28;20622;-61
2023/08/15 06:20:20;;;;;;;2.25;2.00;;;24.00;21.60;;;;;;5074307;28;20435;-61
2023/08/15 06:22:47;;;;;;;2.80;1.92;;;24.00;17.60;;;;;;5069095;28;20723;-60
2023/08/15 06:25:14;;;;;;;2.63;1.40;;;24.10;13.70;;;;;;5067957;28;20439;-60
2023/08/15 06:27:41;;;;;;;2.70;1.70;;;24.20;1.60;;;;;;5070367;28;20773;-60
2023/08/15 06:30:09;;;;;;;2.13;1.90;;;24.40;1.00;;;;;;5072207;28;20431;-60
2023/08/15 06:32:38;;;;;;;2.30;1.60;;;24.40;1.00;;;;;;5070512;28;20427;-60
2023/08/15 06:35:06;;;;;;;1.80;1.42;;;24.30;1.00;;;;;;5075154;28;20435;-60
2023/08/15 06:37:33;;;;;;;2.63;1.90;;;24.30;1.00;;;;;;5071573;28;20407;-60
2023/08/15 06:40:00;;;;;;;2.00;1.80;;;24.40;1.00;;;;;;5074045;28;20427;-60
2023/08/15 06:42:27;;;;;;;2.00;1.52;;;24.30;1.00;;;;;;5072287;28;20423;-60
2023/08/15 06:45:07;;;;;;;2.70;1.40;;;24.30;1.00;;;;;;5081409;28;20933;-60
2023/08/15 06:47:34;;;;;;;1.80;1.60;;;24.30;1.00;;;;;;5092030;28;20430;-60
2023/08/15 06:50:02;;;;;;;1.45;1.35;;;24.40;1.00;;;;;;5085972;28;20869;-60
2023/08/15 06:52:29;;;;;;;2.45;1.27;;;24.30;1.00;;;;;;5092212;28;20417;-60
2023/08/15 06:54:56;;;;;;;3.43;1.50;;;24.40;1.00;;;;;;5075968;28;20493;-60
2023/08/15 06:57:23;;;;;;;1.92;1.40;;;24.50;1.00;;;;;;5075744;28;20480;-60
2023/08/15 06:59:50;;;;;;;2.50;1.60;;;24.50;1.00;;;;;;5091196;28;20516;-60
2023/08/15 07:02:17;;;;;;;2.15;1.60;;;24.60;1.00;;;;;;5094066;28;20499;-60
2023/08/15 07:04:47;;;;;;;1.88;1.38;;;24.60;1.00;;;;;;5092234;28;20491;-60
2023/08/15 07:07:15;;;;;;;2.10;1.50;;;24.70;1.00;;;;;;5094375;28;20417;-60
2023/08/15 07:09:42;;;;;;;1.98;1.80;;;25.00;1.00;;;;;;5096901;28;20490;-60
2023/08/15 07:12:09;;;;;;;4.35;1.70;;;25.10;1.00;;;;;;5093690;28;20441;-60
2023/08/15 07:14:36;;;;;;;2.33;1.80;;;25.20;1.00;;;;;;5078601;28;20436;-59
2023/08/15 07:17:03;;;;;;;1.50;1.30;;;25.40;1.00;;;;;;5077560;28;20790;-60
2023/08/15 07:19:30;;;;;;;1.60;1.50;;;25.50;1.00;;;;;;5095420;28;20938;-60
2023/08/15 07:21:57;;;;;;;2.60;1.55;;;25.60;99.90;;;;;;5091406;28;20492;-60
2023/08/15 07:24:26;;;;;;;2.10;1.30;;;25.70;8.60;;;;;;5095300;28;20478;-60
2023/08/15 07:26:53;;;;;;;1.97;1.40;;;25.90;1.00;;;;;;5089697;28;20435;-60
2023/08/15 07:29:19;;;;;;;1.70;1.20;;;26.10;1.00;;;;;;5095622;28;20425;-60
2023/08/15 07:31:46;;;;;;;3.57;1.73;;;26.30;1.00;;;;;;5088999;28;20421;-60
2023/08/15 07:34:13;;;;;;;2.25;1.50;;;26.30;1.00;;;;;;5095642;28;20691;-60
2023/08/15 07:36:40;;;;;;;2.22;1.20;;;26.30;1.00;;;;;;5089636;28;20901;-59
2023/08/15 07:39:07;;;;;;;2.10;1.80;;;26.50;99.90;;;;;;5074274;28;20419;-60
2023/08/15 07:41:35;;;;;;;1.60;1.15;;;26.50;1.00;;;;;;5078529;28;20902;-60
2023/08/15 07:44:02;;;;;;;1.40;1.30;;;26.50;99.90;;;;;;5093511;28;20845;-60
2023/08/15 07:46:31;;;;;;;1.90;1.30;;;26.50;1.00;;;;;;5087386;28;20427;-60
2023/08/15 07:48:58;;;;;;;2.00;1.50;;;26.50;50.60;;;;;;5073966;28;20476;-60
2023/08/15 07:51:25;;;;;;;2.85;1.40;;;26.60;1.00;;;;;;5083110;28;20730;-60
2023/08/15 07:53:52;;;;;;;1.60;1.10;;;26.80;99.90;;;;;;5093881;28;20779;-60
2023/08/15 07:56:19;;;;;;;3.28;1.10;;;26.90;1.00;;;;;;5088364;28;20426;-61
2023/08/15 07:58:47;;;;;;;1.50;1.20;;;27.00;1.00;;;;;;5095619;28;20783;-60
2023/08/15 08:01:14;;;;;;;1.48;1.20;;;27.10;1.00;;;;;;5089609;28;20741;-61
2023/08/15 08:03:42;;;;;;;2.03;1.35;;;27.10;1.00;;;;;;5095307;28;20694;-61
2023/08/15 08:06:09;;;;;;;1.80;1.20;;;27.10;1.00;;;;;;5088061;28;20860;-61
2023/08/15 08:08:36;;;;;;;2.13;1.20;;;27.20;99.90;;;;;;5094087;28;20483;-61
2023/08/15 08:11:03;;;;;;;1.30;1.10;;;27.30;99.90;;;;;;5083276;28;20432;-61
2023/08/15 08:13:30;;;;;;;2.60;1.20;;;27.40;99.90;;;;;;5074934;28;20492;-61
2023/08/15 08:15:59;;;;;;;2.33;1.20;;;27.40;1.00;;;;;;5078212;28;20430;-68
2023/08/15 08:18:26;;;;;;;1.40;1.20;;;27.50;1.00;;;;;;5075304;28;20431;-68
2023/08/15 08:20:52;;;;;;;1.58;1.10;;;27.60;1.00;;;;;;5086034;28;20437;-68
2023/08/15 08:23:19;;;;;;;1.30;1.13;;;27.90;1.00;;;;;;5096043;28;20558;-68
2023/08/15 08:25:46;;;;;;;2.10;1.20;;;28.10;99.90;;;;;;5092601;28;20561;-68
2023/08/15 08:28:13;;;;;;;2.10;1.30;;;28.40;61.00;;;;;;5110315;28;20424;-69
2023/08/15 08:30:42;;;;;;;1.93;1.03;;;28.50;1.00;;;;;;5084713;28;20501;-69
2023/08/15 08:33:12;;;;;;;2.08;1.20;;;28.50;1.00;;;;;;5077126;28;20435;-69
2023/08/15 08:35:39;;;;;;;3.30;1.30;;;28.50;1.00;;;;;;5110565;28;20514;-69
2023/08/15 08:38:06;;;;;;;2.20;1.20;;;28.50;1.00;;;;;;5074452;28;20424;-69
2023/08/15 08:40:34;;;;;;;2.40;1.55;;;28.10;1.00;;;;;;5073266;28;20473;-69
2023/08/15 08:43:01;;;;;;;1.63;1.10;;;28.10;1.00;;;;;;5071506;28;20473;-69
2023/08/15 08:45:30;;;;;;;1.90;1.20;;;28.20;1.00;;;;;;5073476;28;20992;-70
2023/08/15 08:47:57;;;;;;;1.40;1.10;;;28.20;1.00;;;;;;5087061;28;20775;-71
2023/08/15 08:50:27;;;;;;;1.33;1.10;;;28.20;1.00;;;;;;5081863;28;20435;-70
2023/08/15 08:52:54;;;;;;;2.40;1.30;;;28.10;1.00;;;;;;5090627;28;20511;-70
2023/08/15 08:55:22;;;;;;;2.30;1.30;;;28.10;1.00;;;;;;5091715;28;20663;-70
2023/08/15 08:57:52;;;;;;;1.50;1.10;;;28.00;1.00;;;;;;5087644;28;20453;-70
2023/08/15 09:00:23;;;;;;;1.90;1.30;;;28.00;1.00;;;;;;5092870;28;20520;-69
2023/08/15 09:02:52;;;;;;;3.50;1.60;;;28.00;1.00;;;;;;5078178;28;20538;-70
2023/08/15 09:05:19;;;;;;;3.20;1.40;;;28.10;1.00;;;;;;5074281;28;20436;-69
2023/08/15 09:07:48;;;;;;;2.20;1.50;;;28.10;9.60;;;;;;5072845;28;20550;-69
2023/08/15 09:10:15;;;;;;;1.90;1.10;;;28.20;1.00;;;;;;5071671;28;20424;-68
2023/08/15 09:12:43;;;;;;;2.70;1.20;;;28.30;1.00;;;;;;5088437;28;20425;-69
2023/08/15 09:15:11;;;;;;;1.80;1.30;;;28.40;1.00;;;;;;5092111;28;20426;-69
2023/08/15 09:17:39;;;;;;;1.77;1.10;;;28.50;1.00;;;;;;5073899;28;20431;-69
2023/08/15 09:20:11;;;;;;;2.10;1.30;;;28.50;1.00;;;;;;5074638;28;20505;-69
2023/08/15 09:22:41;;;;;;;2.70;1.20;;;28.50;1.00;;;;;;5093996;28;20438;-70
2023/08/15 09:25:10;;;;;;;2.20;1.20;;;28.80;1.00;;;;;;5093254;28;20421;-69
2023/08/15 09:27:37;;;;;;;2.50;1.10;;;29.20;99.90;;;;;;5072724;28;20427;-68
2023/08/15 09:30:12;;;;;;;1.58;0.70;;;29.30;99.90;;;;;;5078869;28;20502;-69
2023/08/15 09:32:42;;;;;;;2.10;0.70;;;29.20;1.00;;;;;;5092599;28;20425;-70
2023/08/15 09:35:11;;;;;;;2.92;0.80;;;29.30;1.00;;;;;;5087220;28;20510;-68
2023/08/15 09:37:42;;;;;;;2.60;0.70;;;29.20;1.00;;;;;;5089216;28;20485;-68
2023/08/15 09:40:13;;;;;;;1.80;0.80;;;29.30;1.00;;;;;;5074542;28;20520;-69
2023/08/15 09:42:41;;;;;;;0.80;0.60;;;29.30;1.00;;;;;;5100984;28;20884;-69
2023/08/15 09:45:09;;;;;;;1.40;0.70;;;29.30;1.00;;;;;;5094737;28;20520;-69
2023/08/15 09:47:39;;;;;;;1.00;0.70;;;29.30;1.00;;;;;;5107830;28;20489;-69
2023/08/15 09:50:08;;;;;;;1.80;0.60;;;29.30;1.00;;;;;;5092820;28;20745;-69
2023/08/15 09:52:38;;;;;;;1.90;0.67;;;29.30;1.00;;;;;;5094060;28;20571;-68
2023/08/15 09:55:08;;;;;;;0.80;0.60;;;29.20;1.00;;;;;;5091642;28;20510;-69
2023/08/15 09:57:36;;;;;;;1.93;0.70;;;29.30;1.00;;;;;;5092280;28;20472;-69
2023/08/15 10:00:11;;;;;;;1.00;0.60;;;29.30;1.00;;;;;;5091195;28;20425;-68
2023/08/15 10:02:43;;;;;;;1.20;0.60;;;29.50;1.00;;;;;;5083923;28;20518;-68
2023/08/15 10:05:12;;;;;;;1.60;0.60;;;29.60;1.00;;;;;;5074125;28;20738;-68
2023/08/15 10:07:41;;;;;;;1.50;0.63;;;29.60;1.00;;;;;;5071226;28;20750;-68
2023/08/15 10:10:10;;;;;;;1.80;0.90;;;29.60;1.00;;;;;;5069858;28;20416;-68
2023/08/15 10:12:41;;;;;;;0.73;0.60;;;29.50;1.00;;;;;;5073594;28;20746;-67
2023/08/15 10:15:09;;;;;;;1.23;0.70;;;29.30;1.00;;;;;;5078267;28;20528;-67
2023/08/15 10:17:46;;;;;;;1.40;0.80;;;29.30;1.00;;;;;;5093922;28;20483;-67
2023/08/15 10:20:18;;;;;;;1.00;0.70;;;29.20;1.00;;;;;;5094405;28;20480;-67
2023/08/15 10:22:45;;;;;;;1.40;0.60;;;29.20;1.00;;;;;;5089617;28;20453;-67
2023/08/15 10:25:33;;;;;;;1.80;0.70;;;29.20;1.00;;;;;;5106877;28;20436;-67
2023/08/15 10:28:10;;;;;;;0.93;0.70;;;29.20;1.00;;;;;;5112133;28;20684;-67
2023/08/15 10:30:41;;;;;;;1.80;0.70;;;29.30;1.00;;;;;;5114876;28;20561;-66
2023/08/15 10:33:15;;;;;;;0.90;0.60;;;29.40;1.00;;;;;;5118223;28;20428;-67
2023/08/15 10:36:06;;;;;;;2.10;0.70;;;29.20;1.00;;;;;;5117648;28;20431;-67
2023/08/15 10:38:37;;;;;;;1.20;0.80;;;29.30;1.00;;;;;;5104530;28;20620;-67
2023/08/15 10:41:05;;;;;;;1.00;0.70;;;29.30;1.00;;;;;;5115654;28;20842;-65
2023/08/15 10:43:36;;;;;;;0.90;0.70;;;29.20;1.00;;;;;;5096531;28;20628;-65
2023/08/15 10:46:05;;;;;;;1.10;0.70;;;29.20;1.00;;;;;;5077127;28;20436;-67
2023/08/15 10:48:43;;;;;;;2.03;0.60;;;29.20;1.00;;;;;;5076356;28;20529;-65
2023/08/15 10:51:18;;;;;;;1.40;0.60;;;29.50;1.00;;;;;;5075675;28;20568;-66
2023/08/15 10:53:47;;;;;;;1.17;0.63;;;29.70;1.00;;;;;;5076296;28;20489;-63
2023/08/15 10:56:15;;;;;;;1.00;0.60;;;29.90;1.00;;;;;;5080305;28;20429;-64
2023/08/15 10:58:44;;;;;;;1.40;0.60;;;30.20;1.00;;;;;;5075716;28;20815;-64
2023/08/15 11:01:12;;;;;;;1.08;0.50;;;30.50;1.00;;;;;;5078987;28;20432;-63
2023/08/15 11:03:39;;;;;;;1.13;0.50;;;30.50;1.00;;;;;;5095075;28;20436;-63
2023/08/15 11:06:09;;;;;;;0.70;0.50;;;30.60;1.00;;;;;;5088035;28;20555;-64
2023/08/15 11:08:41;;;;;;;0.90;0.60;;;30.50;1.00;;;;;;5075548;28;20766;-64
2023/08/15 11:11:09;;;;;;;1.07;0.50;;;30.30;1.00;;;;;;5085920;28;20443;-64
2023/08/15 11:13:41;;;;;;;0.80;0.50;;;30.10;1.00;;;;;;5091439;28;20906;-65
2023/08/15 11:16:10;;;;;;;1.20;0.50;;;30.00;1.00;;;;;;5096825;28;20460;-64
2023/08/15 11:18:37;;;;;;;0.70;0.50;;;29.60;1.00;;;;;;5093857;28;20568;-64
2023/08/15 11:21:08;;;;;;;1.80;0.60;;;29.30;1.00;;;;;;5075061;28;20823;-64
2023/08/15 11:23:35;;;;;;;0.80;0.57;;;29.40;1.00;;;;;;5073856;28;20477;-64
2023/08/15 11:26:03;;;;;;;0.80;0.50;;;29.60;1.00;;;;;;5074798;28;20692;-69
2023/08/15 11:28:30;;;;;;;0.90;0.50;;;29.40;1.00;;;;;;5071961;28;20626;-68
2023/08/15 11:30:58;;;;;;;1.50;0.50;;;29.50;1.00;;;;;;5079918;28;20426;-69
2023/08/15 11:33:29;;;;;;;0.93;0.60;;;29.90;1.00;;;;;;5094788;28;20429;-69
2023/08/15 11:35:59;;;;;;;1.30;0.60;;;30.10;1.00;;;;;;5085229;28;20432;-70
2023/08/15 11:38:29;;;;;;;0.80;0.52;;;30.50;1.00;;;;;;5073796;28;20518;-69
2023/08/15 11:40:57;;;;;;;1.60;0.60;;;30.90;1.00;;;;;;5079191;28;20467;-69
2023/08/15 11:43:24;;;;;;;0.98;0.60;;;31.30;1.00;;;;;;5074516;28;20420;-70
2023/08/15 11:45:51;;;;;;;1.80;0.60;;;31.50;1.00;;;;;;5083566;28;20710;-71
2023/08/15 11:48:19;;;;;;;0.90;0.60;;;31.70;1.00;;;;;;5093755;28;20874;-70
2023/08/15 11:50:47;;;;;;;0.80;0.60;;;31.80;1.00;;;;;;5088607;28;20492;-70
2023/08/15 11:53:16;;;;;;;1.88;0.60;;;31.50;1.00;;;;;;5094735;28;20430;-71
2023/08/15 11:55:44;;;;;;;1.00;0.70;;;31.90;1.00;;;;;;5094683;28;20817;-71
2023/08/15 11:58:26;;;;;;;2.63;0.80;;;32.20;1.00;;;;;;5109853;28;20408;-71
2023/08/15 12:00:54;;;;;;;1.90;0.80;;;31.70;1.00;;;;;;5096699;28;20434;-70
2023/08/15 12:03:21;;;;;;;1.23;0.80;;;31.80;1.00;;;;;;5079192;28;20430;-70
2023/08/15 12:05:58;;;;;;;2.08;0.90;;;32.20;1.00;;;;;;5093983;28;20418;-70
2023/08/15 12:08:30;;;;;;;1.60;0.80;;;32.20;1.00;;;;;;5077763;28;20465;-71
2023/08/15 12:11:00;;;;;;;1.20;0.90;;;32.40;1.00;;;;;;5097827;28;20432;-70
2023/08/15 12:13:32;;;;;;;1.52;0.90;;;32.60;1.00;;;;;;5095619;28;20441;-71
2023/08/15 12:16:00;;;;;;;1.20;0.80;;;33.10;1.00;;;;;;5088752;28;20421;-71
2023/08/15 12:18:27;;;;;;;1.60;1.00;;;33.30;1.00;;;;;;5074640;28;20427;-71
2023/08/15 12:20:56;;;;;;;1.90;0.80;;;32.90;1.00;;;;;;5078494;28;20954;-71
2023/08/15 12:23:23;;;;;;;1.40;1.00;;;32.50;1.00;;;;;;5094089;28;20425;-72
2023/08/15 12:25:50;;;;;;;2.22;1.00;;;32.50;1.00;;;;;;5087202;28;20491;-71
2023/08/15 12:28:18;;;;;;;1.10;0.90;;;32.70;1.00;;;;;;5090940;28;20437;-70
2023/08/15 12:30:45;;;;;;;1.08;0.90;;;32.60;1.00;;;;;;5084444;28;20451;-71
2023/08/15 12:33:12;;;;;;;2.20;0.93;;;32.70;1.00;;;;;;5074541;28;20481;-71
2023/08/15 12:35:39;;;;;;;1.20;0.90;;;32.90;1.00;;;;;;5074691;28;20431;-71
2023/08/15 12:38:07;;;;;;;1.60;0.70;;;33.10;1.00;;;;;;5073868;28;20419;-71
2023/08/15 12:40:34;;;;;;;0.93;0.80;;;33.30;1.00;;;;;;5073221;28;20427;-72
2023/08/15 12:43:02;;;;;;;1.10;0.70;;;33.40;1.00;;;;;;5072814;28;20865;-71
2023/08/15 12:45:29;;;;;;;1.50;0.70;;;33.50;1.00;;;;;;5074716;28;20485;-71
2023/08/15 12:47:56;;;;;;;1.70;0.70;;;33.60;1.00;;;;;;5074410;28;20780;-71
2023/08/15 12:50:23;;;;;;;1.42;0.80;;;33.40;1.00;;;;;;5080318;28;20536;-72
2023/08/15 12:52:50;;;;;;;1.90;0.70;;;33.10;1.00;;;;;;5093225;28;20490;-72
2023/08/15 12:55:18;;;;;;;1.38;0.70;;;33.30;1.00;;;;;;5082953;28;20485;-71